メインページ
METAR-TAF:

METAR-TAF

空港 :

女満別空港

女満別, 日本

緯度: 43-53N, 経度: 144-10E, 海抜: 33m

現時点の気象観測

当レポートは15分前の09:00(UTC)に作成
の風 20kt
気温 9°C
湿度 76%
気圧 1015 hPa
視程10km以上
高度1000ftの雲はほとんどない
高度3000ftの雲は散在している
千切れ雲あり

METAR: RJCM 240900Z 17020KT 9999 FEW010 SCT030 BKN/// 09/05 Q1015

時間: 18:15 (09:15 UTC)

予報

当レポートは4時間4分前の05:11(UTC)に作成
予報は24日の 06時(UTC)から 25日の 12時(UTC)まで有効
の風 19kt
視程10km以上
高度1500ftの雲はほとんどない
高度3000ftの雲は散在している
24日の 21時(UTC)から 25日の 06時(UTC)まで一時的に
の風 25kt、最大35ktの突風を伴う
25日の 09時(UTC)から 25日の 12時(UTC)まで徐々に
南/南西の風 5kt

TAF: RJCM 240511Z 2406/2512 17019KT 9999 FEW015 SCT030 TEMPO 2421/2506 17025G35KT BECMG 2509/2512 21005KT

4,000以上の空港の気象観測と天気予報(METAR報とTAF報)

利用可能な観測所は地図上に黄色い丸と赤い丸で示す。

丸の上にカーソルを重ねると観測所名を参照できる。

次にクリックすると気象観測と天気予報を参照できる。

マップの切り替え:黒色「×」印の緑ボタンをクリックして拡大、「-」印の緑ボタンをクリックして縮小、緑色の三角印をクリックして隣りの地図に切り替え


METAR-TAF: